createdAt,value
2019-02-04T00:01:27.769Z,-0.16
2019-02-04T00:03:58.755Z,-0.27
2019-02-04T00:06:29.648Z,-0.22
2019-02-04T00:09:00.427Z,-0.16
2019-02-04T00:11:31.219Z,-0.24
2019-02-04T00:14:02.343Z,-0.14
2019-02-04T00:16:40.691Z,-0.13
2019-02-04T00:19:05.834Z,-0.25
2019-02-04T00:21:36.922Z,-0.33
2019-02-04T00:24:07.699Z,-0.24
2019-02-04T00:26:38.497Z,-0.35
2019-02-04T00:29:09.255Z,-0.39
2019-02-04T00:31:40.053Z,-0.36
2019-02-04T00:34:10.856Z,-0.49
2019-02-04T00:36:41.658Z,-0.41
2019-02-04T00:39:12.431Z,-0.52
2019-02-04T00:41:43.407Z,-0.52
2019-02-04T00:44:14.171Z,-0.44
2019-02-04T00:46:52.047Z,-0.48
2019-02-04T00:49:17.891Z,-0.63
2019-02-04T00:51:48.680Z,-0.58
2019-02-04T00:54:19.754Z,-0.65
2019-02-04T00:56:50.572Z,-0.67
2019-02-04T00:59:21.350Z,-0.67
2019-02-04T01:01:52.124Z,-0.64
2019-02-04T01:04:22.926Z,-0.60
2019-02-04T01:06:54.363Z,-0.49
2019-02-04T01:09:25.129Z,-0.56
2019-02-04T01:11:55.902Z,-0.59
2019-02-04T01:14:26.663Z,-0.53
2019-02-04T01:17:03.377Z,-0.69
2019-02-04T01:19:30.171Z,-0.77
2019-02-04T01:22:01.219Z,-0.75
2019-02-04T01:24:31.994Z,-0.81
2019-02-04T01:27:02.773Z,-0.76
2019-02-04T01:29:33.551Z,-0.79
2019-02-04T01:32:04.725Z,-0.95
2019-02-04T01:34:35.519Z,-0.83
2019-02-04T01:37:06.302Z,-0.88
2019-02-04T01:39:37.066Z,-0.98
2019-02-04T01:42:07.946Z,-1.13
2019-02-04T01:44:39.019Z,-1.19
2019-02-04T01:47:14.718Z,-1.04
2019-02-04T01:49:42.467Z,-1.08
2019-02-04T01:52:13.248Z,-0.99
2019-02-04T01:54:44.019Z,-0.91
2019-02-04T01:57:15.208Z,-0.64
2019-02-04T01:59:45.987Z,-0.61
2019-02-04T02:02:16.776Z,-0.66
2019-02-04T02:04:47.635Z,-0.75
2019-02-04T02:07:18.421Z,-0.80
2019-02-04T02:09:49.491Z,-0.91
2019-02-04T02:12:20.267Z,-0.81
2019-02-04T02:14:51.064Z,-1.11
2019-02-04T02:17:26.519Z,-1.29
2019-02-04T02:19:54.508Z,-1.35
2019-02-04T02:22:25.409Z,-1.30
2019-02-04T02:24:56.415Z,-1.34
2019-02-04T02:27:27.204Z,-1.35
2019-02-04T02:29:57.993Z,-1.29
2019-02-04T02:32:28.877Z,-1.44
2019-02-04T02:35:00.465Z,-1.70
2019-02-04T02:37:31.280Z,-1.94
2019-02-04T02:40:05.857Z,-1.71
2019-02-04T02:42:37.717Z,-1.96
2019-02-04T02:45:08.496Z,-2.00
2019-02-04T02:47:39.677Z,-2.18
2019-02-04T02:50:12.464Z,-2.33
2019-02-04T02:52:43.258Z,-2.20
2019-02-04T02:55:18.108Z,-2.04
2019-02-04T02:57:48.919Z,-1.86
2019-02-04T03:00:21.824Z,-1.98
2019-02-04T03:02:52.720Z,-1.76
2019-02-04T03:05:25.086Z,-1.63
2019-02-04T03:07:55.880Z,-1.61
2019-02-04T03:10:28.738Z,-1.67
2019-02-04T03:12:59.525Z,-1.65
2019-02-04T03:15:30.324Z,-1.60
2019-02-04T03:18:01.162Z,-1.56
2019-02-04T03:20:31.886Z,-1.51
2019-02-04T03:23:02.679Z,-1.43
2019-02-04T03:25:33.466Z,-1.59
2019-02-04T03:28:04.267Z,-1.48
2019-02-04T03:30:35.046Z,-1.40
2019-02-04T03:33:05.964Z,-1.54
2019-02-04T03:35:36.805Z,-1.59
2019-02-04T03:38:07.637Z,-1.97
2019-02-04T03:40:38.419Z,-1.85
2019-02-04T03:43:09.197Z,-2.04
2019-02-04T03:45:39.982Z,-1.97
2019-02-04T03:48:10.768Z,-2.07
2019-02-04T03:50:41.545Z,-2.18
2019-02-04T03:53:12.333Z,-2.07
2019-02-04T03:55:43.231Z,-1.93
2019-02-04T03:58:14.150Z,-1.74
2019-02-04T04:00:44.935Z,-1.76
2019-02-04T04:03:15.714Z,-1.85
2019-02-04T04:05:46.492Z,-1.87
2019-02-04T04:08:17.279Z,-1.91
2019-02-04T04:10:48.072Z,-2.25
2019-02-04T04:13:18.848Z,-2.03
2019-02-04T04:15:49.645Z,-1.85
2019-02-04T04:18:20.497Z,-2.31
2019-02-04T04:20:51.267Z,-2.12
2019-02-04T04:23:22.037Z,-2.10
2019-02-04T04:25:52.820Z,-2.31
2019-02-04T04:28:23.794Z,-2.25
2019-02-04T04:30:56.592Z,-2.28
2019-02-04T04:33:27.384Z,-2.17
2019-02-04T04:35:58.158Z,-2.32
2019-02-04T04:38:28.936Z,-2.37
2019-02-04T04:41:00.119Z,-2.32
2019-02-04T04:43:30.904Z,-2.44
2019-02-04T04:46:01.810Z,-2.42
2019-02-04T04:48:32.574Z,-2.23
2019-02-04T04:51:03.353Z,-2.63
2019-02-04T04:53:34.540Z,-2.64
2019-02-04T04:56:05.407Z,-2.77
2019-02-04T04:58:36.206Z,-3.03
2019-02-04T05:01:07.116Z,-2.81
2019-02-04T05:03:37.896Z,-2.95
2019-02-04T05:06:08.677Z,-2.69
2019-02-04T05:08:39.472Z,-2.67
2019-02-04T05:11:10.360Z,-2.85
2019-02-04T05:13:41.138Z,-2.61
2019-02-04T05:16:11.907Z,-2.55
2019-02-04T05:18:42.672Z,-2.46
2019-02-04T05:21:13.471Z,-2.45
2019-02-04T05:23:44.242Z,-2.37
2019-02-04T05:26:15.028Z,-2.60
2019-02-04T05:28:46.792Z,-2.60
2019-02-04T05:31:17.614Z,-2.62
2019-02-04T05:33:48.412Z,-2.70
2019-02-04T05:36:20.293Z,-2.66
2019-02-04T05:38:51.057Z,-2.58
2019-02-04T05:41:21.825Z,-2.51
2019-02-04T05:43:52.594Z,-2.51
2019-02-04T05:46:23.445Z,-2.61
2019-02-04T05:48:54.234Z,-2.80
2019-02-04T05:51:25.014Z,-2.66
2019-02-04T05:53:56.886Z,-2.86
2019-02-04T05:56:27.847Z,-2.84
2019-02-04T05:58:58.768Z,-2.88
2019-02-04T06:01:29.560Z,-2.81
2019-02-04T06:04:00.339Z,-2.65
2019-02-04T06:06:31.123Z,-2.57
2019-02-04T06:09:04.381Z,-2.54
2019-02-04T06:11:35.152Z,-2.59
2019-02-04T06:14:05.927Z,-2.62
2019-02-04T06:16:36.707Z,-2.70
2019-02-04T06:19:07.481Z,-2.81
2019-02-04T06:21:38.256Z,-2.95
2019-02-04T06:24:09.025Z,-3.03
2019-02-04T06:26:39.822Z,-2.96
2019-02-04T06:29:10.602Z,-2.92
2019-02-04T06:31:41.383Z,-3.04
2019-02-04T06:34:12.169Z,-3.09
2019-02-04T06:36:43.049Z,-2.96
2019-02-04T06:39:13.829Z,-2.82
2019-02-04T06:41:44.600Z,-2.95
2019-02-04T06:44:15.381Z,-2.94
2019-02-04T06:46:46.214Z,-3.11
2019-02-04T06:49:17.421Z,-3.09
2019-02-04T06:51:50.092Z,-3.09
2019-02-04T06:54:20.891Z,-3.03
2019-02-04T06:56:51.703Z,-3.12
2019-02-04T06:59:22.585Z,-2.69
2019-02-04T07:01:53.783Z,-2.45
2019-02-04T07:04:24.578Z,-2.59
2019-02-04T07:06:55.352Z,-2.50
2019-02-04T07:09:26.231Z,-2.76
2019-02-04T07:11:57.062Z,-3.12
2019-02-04T07:14:27.853Z,-2.79
2019-02-04T07:16:58.628Z,-2.21
2019-02-04T07:19:29.425Z,-2.42
2019-02-04T07:22:00.228Z,-2.87
2019-02-04T07:24:42.135Z,-2.70
2019-02-04T07:27:03.679Z,-2.39
2019-02-04T07:29:34.491Z,-2.45
2019-02-04T07:32:05.260Z,-3.11
2019-02-04T07:34:36.043Z,-2.96
2019-02-04T07:37:06.824Z,-2.58
2019-02-04T07:39:37.599Z,-2.80
2019-02-04T07:42:08.773Z,-2.76
2019-02-04T07:44:39.548Z,-2.43
2019-02-04T07:47:10.312Z,-2.39
2019-02-04T07:49:41.137Z,-2.08
2019-02-04T07:52:12.009Z,-2.61
2019-02-04T07:54:43.250Z,-2.50
2019-02-04T07:57:14.013Z,-2.56
2019-02-04T07:59:44.801Z,-2.59
2019-02-04T08:02:15.583Z,-2.39
2019-02-04T08:04:46.343Z,-2.42
2019-02-04T08:07:17.609Z,-2.37
2019-02-04T08:09:48.644Z,-3.09
2019-02-04T08:12:25.224Z,-3.19
2019-02-04T08:14:56.000Z,-3.20
2019-02-04T08:17:26.781Z,-2.85
2019-02-04T08:19:57.944Z,-2.41
2019-02-04T08:22:28.720Z,-2.02
2019-02-04T08:24:59.494Z,-1.13
2019-02-04T08:27:30.254Z,-0.01
2019-02-04T08:30:01.133Z,1.51
2019-02-04T08:32:32.299Z,1.95
2019-02-04T08:35:04.983Z,2.38
2019-02-04T08:37:35.742Z,3.04
2019-02-04T08:40:10.223Z,2.69
2019-02-04T08:42:40.989Z,2.98
2019-02-04T08:45:13.362Z,2.57
2019-02-04T08:47:44.120Z,2.97
2019-02-04T08:50:17.514Z,2.17
2019-02-04T08:52:48.398Z,3.21
2019-02-04T08:55:19.343Z,4.01
2019-02-04T08:57:50.230Z,3.15
2019-02-04T09:00:22.437Z,4.11
2019-02-04T09:02:53.225Z,4.01
2019-02-04T09:05:24.129Z,3.42
2019-02-04T09:07:54.874Z,3.63
2019-02-04T09:10:28.886Z,4.32
2019-02-04T09:13:00.253Z,4.28
2019-02-04T09:15:31.032Z,3.58
2019-02-04T09:18:01.900Z,3.78
2019-02-04T09:20:32.730Z,3.48
2019-02-04T09:23:06.027Z,3.72
2019-02-04T09:25:36.185Z,4.01
2019-02-04T09:28:06.996Z,4.50
2019-02-04T09:30:37.775Z,4.01
2019-02-04T09:33:08.536Z,4.05
2019-02-04T09:35:39.308Z,4.22
2019-02-04T09:38:10.087Z,4.43
2019-02-04T09:40:42.364Z,4.04
2019-02-04T09:43:13.136Z,4.40
2019-02-04T09:45:43.908Z,3.83
2019-02-04T09:48:16.172Z,3.90
2019-02-04T09:50:49.653Z,4.17
2019-02-04T09:53:20.427Z,4.18
2019-02-04T09:55:51.226Z,4.06
2019-02-04T09:58:22.009Z,3.98
2019-02-04T10:00:52.895Z,4.11
2019-02-04T10:03:23.669Z,4.76
2019-02-04T10:05:54.439Z,4.42
2019-02-04T10:08:25.208Z,4.45
2019-02-04T10:10:56.047Z,4.21
2019-02-04T10:13:28.834Z,4.55
2019-02-04T10:15:59.695Z,4.72
2019-02-04T10:18:30.487Z,4.64
2019-02-04T10:21:01.694Z,4.95
2019-02-04T10:23:32.433Z,4.96
2019-02-04T10:26:03.331Z,5.29
2019-02-04T10:28:34.154Z,4.16
2019-02-04T10:31:04.945Z,4.10
2019-02-04T10:33:35.820Z,3.60
2019-02-04T10:36:06.675Z,3.41
2019-02-04T10:38:37.459Z,3.21
2019-02-04T10:41:11.633Z,2.42
2019-02-04T10:43:42.456Z,2.84
2019-02-04T10:46:13.223Z,2.27
2019-02-04T10:48:44.364Z,2.74
2019-02-04T10:51:15.226Z,3.38
2019-02-04T10:53:46.020Z,3.17
2019-02-04T10:56:16.898Z,2.59
2019-02-04T10:58:47.703Z,1.95
2019-02-04T11:01:18.493Z,2.88
2019-02-04T11:03:49.355Z,3.17
2019-02-04T11:06:20.116Z,3.63
2019-02-04T11:08:51.435Z,3.97
2019-02-04T11:11:22.213Z,3.05
2019-02-04T11:13:53.062Z,3.32
2019-02-04T11:16:23.844Z,3.06
2019-02-04T11:18:54.599Z,2.79
2019-02-04T11:21:25.793Z,2.95
2019-02-04T11:23:57.278Z,2.23
2019-02-04T11:26:28.025Z,2.24
2019-02-04T11:28:59.096Z,1.95
2019-02-04T11:31:29.896Z,2.66
2019-02-04T11:34:00.979Z,2.12
2019-02-04T11:36:31.758Z,2.59
2019-02-04T11:39:05.598Z,2.42
2019-02-04T11:41:36.459Z,2.32
2019-02-04T11:44:07.294Z,2.79
2019-02-04T11:46:38.457Z,2.56
2019-02-04T11:49:09.234Z,2.16
2019-02-04T11:51:39.999Z,1.93
2019-02-04T11:54:10.765Z,1.51
2019-02-04T11:56:41.747Z,1.47
2019-02-04T11:59:12.516Z,1.57
2019-02-04T12:01:43.355Z,1.77
2019-02-04T12:04:14.127Z,1.65
2019-02-04T12:06:44.966Z,1.23
2019-02-04T12:09:15.739Z,1.76
2019-02-04T12:11:46.517Z,1.50
2019-02-04T12:14:17.342Z,1.55
2019-02-04T12:16:48.119Z,1.91
2019-02-04T12:19:18.894Z,2.63
2019-02-04T12:21:49.784Z,2.70
2019-02-04T12:24:20.553Z,2.53
2019-02-04T12:26:51.520Z,2.64
2019-02-04T12:29:22.306Z,2.09
2019-02-04T12:31:53.061Z,2.68
2019-02-04T12:34:23.928Z,2.80
2019-02-04T12:36:54.750Z,3.20
2019-02-04T12:39:25.836Z,2.99
2019-02-04T12:41:56.618Z,3.00
2019-02-04T12:44:27.400Z,3.17
2019-02-04T12:46:58.183Z,2.96
2019-02-04T12:49:28.947Z,2.95
2019-02-04T12:51:59.805Z,2.97
2019-02-04T12:54:30.581Z,2.94
2019-02-04T12:57:01.408Z,2.47
2019-02-04T12:59:32.275Z,2.97
2019-02-04T13:02:03.144Z,3.04
2019-02-04T13:04:33.915Z,2.94
2019-02-04T13:07:04.789Z,3.09
2019-02-04T13:09:35.564Z,3.21
2019-02-04T13:12:09.087Z,3.23
2019-02-04T13:14:39.139Z,3.08
2019-02-04T13:17:09.971Z,2.36
2019-02-04T13:19:40.744Z,2.64
2019-02-04T13:22:11.608Z,2.46
2019-02-04T13:24:42.389Z,2.49
2019-02-04T13:27:13.155Z,2.34
2019-02-04T13:29:43.926Z,2.44
2019-02-04T13:32:15.090Z,2.12
2019-02-04T13:34:45.871Z,2.13
2019-02-04T13:37:16.703Z,1.73
2019-02-04T13:39:47.465Z,1.16
2019-02-04T13:42:18.235Z,1.36
2019-02-04T13:44:49.321Z,1.38
2019-02-04T13:47:20.089Z,1.63
2019-02-04T13:49:50.914Z,1.14
2019-02-04T13:52:21.733Z,1.36
2019-02-04T13:54:52.614Z,1.44
2019-02-04T13:57:23.815Z,1.11
2019-02-04T13:59:54.652Z,1.27
2019-02-04T14:02:25.501Z,1.21
2019-02-04T14:04:57.090Z,1.05
2019-02-04T14:07:27.868Z,0.97
2019-02-04T14:09:59.323Z,0.96
2019-02-04T14:12:30.129Z,0.71
2019-02-04T14:15:00.907Z,0.58
2019-02-04T14:17:31.667Z,0.76
2019-02-04T14:20:05.549Z,0.72
2019-02-04T14:22:36.789Z,0.83
2019-02-04T14:25:08.049Z,0.84
2019-02-04T14:27:38.811Z,0.64
2019-02-04T14:30:15.614Z,0.62
2019-02-04T14:32:46.677Z,0.70
2019-02-04T14:35:17.648Z,0.53
2019-02-04T14:37:48.518Z,0.18
2019-02-04T14:40:19.538Z,0.23
2019-02-04T14:42:53.805Z,0.22
2019-02-04T14:45:28.796Z,0.13
2019-02-04T14:48:06.377Z,0.03
2019-02-04T14:50:43.775Z,0.00
2019-02-04T14:53:27.625Z,0.11
2019-02-04T14:56:29.387Z,-0.21
2019-02-04T14:59:07.176Z,-0.19
2019-02-04T15:01:41.783Z,-0.28
2019-02-04T15:04:19.269Z,-0.21
2019-02-04T15:07:23.036Z,-0.23
2019-02-04T15:10:12.383Z,-0.54
2019-02-04T15:13:08.463Z,-0.73
2019-02-04T15:15:55.093Z,-0.65
2019-02-04T15:18:32.674Z,-0.97
2019-02-04T15:21:10.359Z,-1.08
2019-02-04T15:24:08.790Z,-1.19
2019-02-04T15:26:57.489Z,-1.48
2019-02-04T15:29:47.068Z,-1.42
2019-02-04T15:32:21.726Z,-1.64
2019-02-04T15:35:16.426Z,-1.94
2019-02-04T15:38:14.239Z,-1.96
2019-02-04T15:40:54.750Z,-2.16
2019-02-04T15:43:40.078Z,-2.20
2019-02-04T15:46:21.230Z,-2.45
2019-02-04T15:49:13.044Z,-2.41
2019-02-04T15:51:52.208Z,-2.41
2019-02-04T15:54:23.005Z,-2.58
2019-02-04T15:56:53.995Z,-2.62
2019-02-04T15:59:24.806Z,-2.53
2019-02-04T16:01:55.997Z,-2.82
2019-02-04T16:04:32.897Z,-2.84
2019-02-04T16:07:05.787Z,-2.72
2019-02-04T16:09:36.594Z,-2.59
2019-02-04T16:12:07.493Z,-2.69
2019-02-04T16:14:38.469Z,-2.51
2019-02-04T16:17:09.348Z,-2.44
2019-02-04T16:19:47.499Z,-2.22
2019-02-04T16:22:18.262Z,-2.41
2019-02-04T16:24:49.059Z,-2.69
2019-02-04T16:27:19.825Z,-2.66
2019-02-04T16:29:50.678Z,-2.63
2019-02-04T16:32:21.468Z,-2.43
2019-02-04T16:34:52.249Z,-2.52
2019-02-04T16:37:23.138Z,-2.54
2019-02-04T16:40:11.012Z,-2.64
2019-02-04T16:42:41.799Z,-2.38
2019-02-04T16:45:21.054Z,-2.35
2019-02-04T16:47:52.251Z,-2.37
2019-02-04T16:50:25.081Z,-2.37
2019-02-04T16:52:56.013Z,-2.33
2019-02-04T16:55:26.790Z,-2.21
2019-02-04T16:57:57.679Z,-2.14
2019-02-04T17:00:32.413Z,-2.22
2019-02-04T17:03:03.291Z,-2.15
2019-02-04T17:05:34.174Z,-2.18
2019-02-04T17:08:05.275Z,-2.18
2019-02-04T17:10:36.060Z,-2.23
2019-02-04T17:13:07.240Z,-2.37
2019-02-04T17:15:38.039Z,-2.48
2019-02-04T17:18:08.810Z,-2.40
2019-02-04T17:20:39.697Z,-2.33
2019-02-04T17:23:21.672Z,-2.46
2019-02-04T17:25:43.165Z,-2.17
2019-02-04T17:28:14.024Z,-2.15
2019-02-04T17:30:44.955Z,-2.18
2019-02-04T17:33:15.855Z,-2.27
2019-02-04T17:35:46.762Z,-2.11
2019-02-04T17:38:17.673Z,-2.21
2019-02-04T17:40:48.458Z,-2.27
2019-02-04T17:43:19.387Z,-2.21
2019-02-04T17:45:50.381Z,-2.26
2019-02-04T17:48:21.455Z,-2.24
2019-02-04T17:50:52.595Z,-2.41
2019-02-04T17:53:33.816Z,-2.33
2019-02-04T17:55:56.779Z,-2.31
2019-02-04T17:58:27.732Z,-2.29
2019-02-04T18:00:58.663Z,-2.28
2019-02-04T18:03:29.597Z,-2.27
2019-02-04T18:06:00.717Z,-2.18
2019-02-04T18:08:31.650Z,-2.25
2019-02-04T18:11:02.747Z,-2.08
2019-02-04T18:13:33.948Z,-2.29
2019-02-04T18:16:05.358Z,-2.59
2019-02-04T18:18:36.814Z,-2.52
2019-02-04T18:21:07.752Z,-2.89
2019-02-04T18:23:45.532Z,-2.89
2019-02-04T18:26:11.657Z,-3.00
2019-02-04T18:28:43.116Z,-3.04
2019-02-04T18:31:14.218Z,-3.12
2019-02-04T18:33:57.389Z,-3.04
2019-02-04T18:36:28.467Z,-3.16
2019-02-04T18:39:00.303Z,-3.12
2019-02-04T18:41:31.388Z,-3.01
2019-02-04T18:44:04.106Z,-2.84
2019-02-04T18:46:35.729Z,-2.76
2019-02-04T18:49:06.865Z,-3.04
2019-02-04T18:51:38.110Z,-3.10
2019-02-04T18:54:09.358Z,-3.14
2019-02-04T18:56:40.434Z,-2.87
2019-02-04T18:59:13.276Z,-2.70
2019-02-04T19:01:44.506Z,-2.57
2019-02-04T19:04:15.892Z,-2.56
2019-02-04T19:06:48.139Z,-2.31
2019-02-04T19:09:21.789Z,-2.56
2019-02-04T19:11:55.450Z,-2.68
2019-02-04T19:14:26.039Z,-2.50
2019-02-04T19:16:57.138Z,-2.25
2019-02-04T19:19:28.563Z,-2.25
2019-02-04T19:21:59.952Z,-2.47
2019-02-04T19:24:31.577Z,-2.79
2019-02-04T19:27:03.841Z,-2.91
2019-02-04T19:29:35.410Z,-2.98
2019-02-04T19:32:06.875Z,-3.10
2019-02-04T19:34:38.264Z,-3.27
2019-02-04T19:37:09.649Z,-3.13
2019-02-04T19:39:41.112Z,-3.04
2019-02-04T19:42:12.842Z,-3.22
2019-02-04T19:44:44.392Z,-3.06
2019-02-04T19:47:15.729Z,-2.95
2019-02-04T19:49:47.287Z,-2.97
2019-02-04T19:52:18.721Z,-2.87
2019-02-04T19:54:50.347Z,-2.85
2019-02-04T19:57:21.955Z,-2.68
2019-02-04T19:59:53.794Z,-2.65
2019-02-04T20:02:25.459Z,-2.57
2019-02-04T20:04:56.828Z,-2.60
2019-02-04T20:07:28.702Z,-2.68
2019-02-04T20:10:00.530Z,-2.81
2019-02-04T20:12:32.196Z,-2.89
2019-02-04T20:15:07.544Z,-2.99
2019-02-04T20:17:39.004Z,-2.95
2019-02-04T20:20:10.824Z,-2.82
2019-02-04T20:22:42.172Z,-2.83
2019-02-04T20:25:23.051Z,-2.66
2019-02-04T20:27:54.952Z,-2.50
2019-02-04T20:30:44.628Z,-2.80
2019-02-04T20:33:06.993Z,-2.97
2019-02-04T20:35:39.759Z,-2.82
2019-02-04T20:38:11.144Z,-2.65
2019-02-04T20:40:42.248Z,-2.82
2019-02-04T20:43:13.550Z,-2.83
2019-02-04T20:45:45.009Z,-2.95
2019-02-04T20:48:16.417Z,-3.15
2019-02-04T20:50:49.497Z,-3.23
2019-02-04T20:53:21.235Z,-3.14
2019-02-04T20:55:52.600Z,-3.09
2019-02-04T20:58:23.711Z,-2.75
2019-02-04T21:00:55.339Z,-2.68
2019-02-04T21:03:31.373Z,-2.56
2019-02-04T21:06:03.576Z,-2.51
2019-02-04T21:08:34.959Z,-2.61
2019-02-04T21:11:06.579Z,-2.59
2019-02-04T21:13:37.525Z,-2.50
2019-02-04T21:16:08.721Z,-2.56
2019-02-04T21:18:40.258Z,-2.50
2019-02-04T21:21:11.510Z,-2.42
2019-02-04T21:23:42.583Z,-2.38
2019-02-04T21:26:13.633Z,-2.45
2019-02-04T21:28:45.012Z,-2.24
2019-02-04T21:31:16.069Z,-2.32
2019-02-04T21:33:47.179Z,-2.27
2019-02-04T21:36:17.956Z,-2.19
2019-02-04T21:38:48.737Z,-2.34
2019-02-04T21:41:19.623Z,-2.29
2019-02-04T21:43:50.434Z,-2.20
2019-02-04T21:46:21.232Z,-2.46
2019-02-04T21:48:52.026Z,-3.05
2019-02-04T21:51:22.816Z,-2.65
2019-02-04T21:53:53.594Z,-2.84
2019-02-04T21:56:24.384Z,-2.86
2019-02-04T21:58:55.379Z,-2.94
2019-02-04T22:01:26.172Z,-2.50
2019-02-04T22:03:56.952Z,-2.36
2019-02-04T22:06:27.734Z,-2.18
2019-02-04T22:08:58.500Z,-2.20
2019-02-04T22:11:29.299Z,-2.23
2019-02-04T22:14:00.401Z,-2.29
2019-02-04T22:16:31.200Z,-2.08
2019-02-04T22:19:03.872Z,-2.15
2019-02-04T22:21:34.639Z,-2.34
2019-02-04T22:24:05.728Z,-2.28
2019-02-04T22:26:36.573Z,-2.38
2019-02-04T22:29:07.622Z,-2.41
2019-02-04T22:31:38.406Z,-2.18
2019-02-04T22:34:09.565Z,-2.43
2019-02-04T22:36:40.340Z,-2.66
2019-02-04T22:39:11.407Z,-2.28
2019-02-04T22:41:42.191Z,-2.22
2019-02-04T22:44:12.953Z,-2.19
2019-02-04T22:46:43.761Z,-2.27
2019-02-04T22:49:14.570Z,-2.22
2019-02-04T22:51:45.360Z,-2.37
2019-02-04T22:54:16.126Z,-2.39
2019-02-04T22:56:46.916Z,-2.43
2019-02-04T22:59:17.687Z,-2.33
2019-02-04T23:01:48.962Z,-2.39
2019-02-04T23:04:19.747Z,-2.33
2019-02-04T23:06:50.542Z,-2.26
2019-02-04T23:09:21.417Z,-2.13
2019-02-04T23:11:52.334Z,-2.20
2019-02-04T23:14:23.108Z,-2.26
2019-02-04T23:16:54.305Z,-2.25
2019-02-04T23:19:25.175Z,-2.33
2019-02-04T23:21:55.944Z,-2.20
2019-02-04T23:24:26.732Z,-2.19
2019-02-04T23:26:57.511Z,-2.27
2019-02-04T23:29:28.296Z,-2.27
2019-02-04T23:31:59.362Z,-2.42
2019-02-04T23:34:30.176Z,-2.26
2019-02-04T23:37:01.023Z,-2.24
2019-02-04T23:39:31.800Z,-2.25
2019-02-04T23:42:02.573Z,-2.28
2019-02-04T23:44:33.562Z,-2.33
2019-02-04T23:47:04.339Z,-2.35
2019-02-04T23:49:35.112Z,-2.38
2019-02-04T23:52:05.971Z,-2.24
2019-02-04T23:54:36.778Z,-2.37
2019-02-04T23:57:07.540Z,-2.56
2019-02-04T23:59:38.379Z,-2.49
